createdAt,value
2022-09-07T00:02:24.864Z,1.48
2022-09-07T00:04:58.019Z,1.40
2022-09-07T00:07:30.945Z,0.98
2022-09-07T00:10:03.869Z,1.20
2022-09-07T00:12:36.786Z,1.08
2022-09-07T00:15:11.375Z,1.20
2022-09-07T00:17:44.238Z,1.35
2022-09-07T00:20:17.227Z,1.10
2022-09-07T00:22:49.988Z,1.00
2022-09-07T00:25:23.012Z,1.27
2022-09-07T00:27:55.798Z,0.93
2022-09-07T00:30:28.643Z,0.82
2022-09-07T00:33:01.371Z,1.08
2022-09-07T00:36:15.482Z,0.93
2022-09-07T00:38:52.402Z,1.20
2022-09-07T00:41:25.386Z,1.20
2022-09-07T00:44:19.430Z,1.10
2022-09-07T00:46:52.411Z,1.15
2022-09-07T00:49:25.317Z,1.13
2022-09-07T00:52:02.861Z,1.00
2022-09-07T00:54:46.367Z,0.93
2022-09-07T00:57:20.628Z,1.05
2022-09-07T01:00:12.193Z,1.05
2022-09-07T01:02:47.501Z,1.27
2022-09-07T01:06:04.289Z,1.10
2022-09-07T01:08:37.526Z,1.00
2022-09-07T01:11:11.475Z,1.10
2022-09-07T01:13:47.207Z,1.52
2022-09-07T01:16:25.920Z,0.85
2022-09-07T01:19:09.080Z,1.17
2022-09-07T01:22:03.971Z,1.30
2022-09-07T01:24:45.659Z,1.00
2022-09-07T01:27:40.902Z,1.20
2022-09-07T01:30:17.706Z,1.20
2022-09-07T01:33:24.356Z,1.20
2022-09-07T01:36:18.342Z,1.25
2022-09-07T01:39:01.737Z,0.88
2022-09-07T01:41:56.948Z,0.60
2022-09-07T01:44:56.334Z,0.57
2022-09-07T01:47:40.382Z,0.70
2022-09-07T01:50:26.441Z,0.77
2022-09-07T01:53:01.712Z,0.77
2022-09-07T01:55:49.207Z,1.50
2022-09-07T01:58:33.552Z,1.20
2022-09-07T02:01:14.048Z,1.20
2022-09-07T02:04:04.878Z,1.10
2022-09-07T02:07:00.636Z,0.88
2022-09-07T02:09:50.618Z,0.73
2022-09-07T02:12:49.397Z,0.90
2022-09-07T02:15:49.871Z,0.80
2022-09-07T02:18:24.310Z,0.80
2022-09-07T02:21:00.111Z,0.82
2022-09-07T02:23:44.529Z,0.77
2022-09-07T02:26:21.471Z,0.75
2022-09-07T02:28:54.507Z,0.57
2022-09-07T02:31:28.334Z,0.65
2022-09-07T02:34:01.961Z,0.65
2022-09-07T02:36:44.269Z,0.90
2022-09-07T02:39:17.647Z,0.80
2022-09-07T02:41:50.569Z,1.02
2022-09-07T02:44:34.633Z,0.80
2022-09-07T02:47:07.490Z,1.13
2022-09-07T02:50:14.457Z,1.00
2022-09-07T02:53:01.820Z,0.80
2022-09-07T02:55:37.560Z,0.80
2022-09-07T02:58:41.007Z,0.88
2022-09-07T03:01:41.217Z,1.10
2022-09-07T03:04:23.801Z,0.73
2022-09-07T03:07:07.005Z,1.00
2022-09-07T03:09:43.365Z,0.70
2022-09-07T03:12:16.996Z,1.20
2022-09-07T03:14:49.878Z,1.17
2022-09-07T03:17:22.718Z,1.10
2022-09-07T03:19:55.451Z,0.88
2022-09-07T03:22:28.423Z,0.80
2022-09-07T03:25:01.673Z,0.80
2022-09-07T03:27:37.696Z,0.70
2022-09-07T03:30:12.653Z,0.80
2022-09-07T03:32:45.415Z,0.90
2022-09-07T03:35:18.436Z,0.70
2022-09-07T03:37:51.308Z,0.70
2022-09-07T03:40:24.134Z,0.80
2022-09-07T03:42:56.983Z,1.00
2022-09-07T03:45:29.834Z,1.00
2022-09-07T03:48:02.869Z,0.88
2022-09-07T03:50:35.769Z,1.13
2022-09-07T03:53:08.607Z,0.80
2022-09-07T03:55:41.393Z,1.00
2022-09-07T03:58:14.284Z,0.82
2022-09-07T04:00:47.070Z,1.30
2022-09-07T04:03:20.018Z,1.15
2022-09-07T04:05:52.830Z,1.00
2022-09-07T04:08:28.077Z,0.90
2022-09-07T04:11:02.488Z,1.13
2022-09-07T04:13:36.212Z,1.10
2022-09-07T04:16:21.256Z,0.88
2022-09-07T04:18:54.687Z,1.00
2022-09-07T04:21:30.138Z,0.93
2022-09-07T04:24:03.283Z,0.90
2022-09-07T04:26:37.160Z,1.05
2022-09-07T04:29:12.564Z,1.20
2022-09-07T04:31:45.444Z,1.17
2022-09-07T04:34:18.484Z,1.10
2022-09-07T04:36:51.692Z,0.93
2022-09-07T04:39:24.648Z,1.20
2022-09-07T04:41:57.566Z,1.05
2022-09-07T04:44:41.057Z,1.60
2022-09-07T04:47:13.892Z,1.40
2022-09-07T04:49:50.779Z,1.30
2022-09-07T04:52:24.191Z,1.23
2022-09-07T04:54:56.984Z,1.55
2022-09-07T04:57:29.844Z,1.13
2022-09-07T05:00:04.496Z,1.58
2022-09-07T05:02:38.143Z,1.60
2022-09-07T05:05:10.958Z,1.73
2022-09-07T05:07:43.986Z,2.30
2022-09-07T05:10:16.929Z,1.98
2022-09-07T05:12:49.710Z,1.38
2022-09-07T05:15:22.673Z,1.80
2022-09-07T05:17:55.716Z,1.77
2022-09-07T05:20:32.624Z,1.90
2022-09-07T05:23:05.545Z,1.20
2022-09-07T05:25:44.551Z,1.02
2022-09-07T05:28:19.571Z,1.10
2022-09-07T05:36:43.115Z,1.15
2022-09-07T05:39:15.910Z,1.17
2022-09-07T05:41:48.912Z,1.00
2022-09-07T05:47:14.979Z,1.30
2022-09-07T05:50:12.873Z,0.90
2022-09-07T05:52:47.855Z,1.10
2022-09-07T05:55:30.063Z,1.08
2022-09-07T05:58:03.552Z,1.00
2022-09-07T06:00:36.348Z,1.23
2022-09-07T06:03:09.357Z,1.30
2022-09-07T06:05:42.217Z,1.35
2022-09-07T06:08:15.130Z,1.20
2022-09-07T06:10:48.037Z,1.63
2022-09-07T06:13:20.938Z,1.30
2022-09-07T06:15:53.790Z,1.48
2022-09-07T06:18:32.956Z,1.63
2022-09-07T06:21:10.926Z,1.75
2022-09-07T06:23:45.053Z,1.95
2022-09-07T06:26:19.615Z,1.50
2022-09-07T06:28:57.178Z,1.80
2022-09-07T06:35:15.280Z,1.92
2022-09-07T06:37:48.192Z,1.70
2022-09-07T06:40:22.808Z,1.90
2022-09-07T06:42:55.643Z,1.55
2022-09-07T06:45:28.597Z,1.67
2022-09-07T06:48:01.474Z,1.80
2022-09-07T06:50:34.534Z,1.55
2022-09-07T06:56:00.970Z,1.60
2022-09-07T06:58:34.979Z,2.25
2022-09-07T07:01:16.054Z,1.83
2022-09-07T07:03:49.038Z,1.90
2022-09-07T07:06:22.020Z,2.10
2022-09-07T07:08:55.062Z,1.95
2022-09-07T07:11:27.871Z,1.90
2022-09-07T07:14:00.833Z,1.95
2022-09-07T07:16:33.746Z,2.15
2022-09-07T07:19:06.672Z,2.28
2022-09-07T07:22:03.602Z,2.00
2022-09-07T07:24:32.318Z,2.20
2022-09-07T07:27:05.402Z,2.60
2022-09-07T07:29:38.400Z,2.15
2022-09-07T07:32:11.306Z,2.20
2022-09-07T07:34:44.151Z,2.42
2022-09-07T07:37:17.230Z,2.75
2022-09-07T07:42:44.182Z,2.40
2022-09-07T07:48:12.038Z,2.58
2022-09-07T07:50:44.768Z,2.75
2022-09-07T07:56:11.117Z,2.60
2022-09-07T07:58:46.758Z,2.75
2022-09-07T08:01:19.734Z,2.70
2022-09-07T08:03:52.788Z,2.25
2022-09-07T08:06:25.570Z,2.60
2022-09-07T08:08:58.393Z,1.85
2022-09-07T08:11:31.523Z,2.03
2022-09-07T08:14:05.869Z,2.25
2022-09-07T08:16:38.755Z,2.00
2022-09-07T08:19:11.693Z,1.90
2022-09-07T08:21:44.498Z,1.83
2022-09-07T08:24:17.321Z,2.17
2022-09-07T08:26:50.259Z,1.92
2022-09-07T08:29:23.303Z,2.08
2022-09-07T08:31:56.007Z,2.17
2022-09-07T08:34:28.770Z,2.03
2022-09-07T08:37:01.491Z,2.10
2022-09-07T08:39:34.380Z,2.13
2022-09-07T08:42:14.318Z,2.05
2022-09-07T08:44:53.505Z,2.15
2022-09-07T08:47:52.985Z,2.00
2022-09-07T08:50:56.912Z,2.20
2022-09-07T08:53:30.133Z,2.22
2022-09-07T08:56:13.795Z,1.90
2022-09-07T08:58:49.608Z,1.80
2022-09-07T09:02:26.975Z,1.88
2022-09-07T09:08:00.798Z,1.60
2022-09-07T09:11:17.746Z,1.65
2022-09-07T09:13:56.817Z,1.73
2022-09-07T09:16:33.915Z,1.50
2022-09-07T09:19:47.859Z,1.65
2022-09-07T09:22:23.719Z,1.80
2022-09-07T09:25:26.599Z,1.60
2022-09-07T09:27:59.620Z,1.50
2022-09-07T09:30:57.785Z,1.10
2022-09-07T09:33:31.096Z,1.70
2022-09-07T09:36:24.102Z,1.30
2022-09-07T09:38:56.830Z,1.30
2022-09-07T09:41:37.087Z,1.13
2022-09-07T09:44:16.014Z,1.10
2022-09-07T09:47:29.457Z,1.10
2022-09-07T09:49:45.760Z,1.20
2022-09-07T09:52:31.113Z,0.93
2022-09-07T09:55:30.684Z,1.05
2022-09-07T10:03:59.133Z,0.90
2022-09-07T10:06:35.550Z,1.67
2022-09-07T10:09:17.987Z,0.98
2022-09-07T10:12:25.547Z,0.98
2022-09-07T10:15:01.008Z,1.10
2022-09-07T10:17:37.089Z,0.90
2022-09-07T10:20:15.984Z,1.00
2022-09-07T10:22:51.821Z,1.20
2022-09-07T10:25:32.963Z,1.10
2022-09-07T10:28:10.377Z,0.93
2022-09-07T10:31:11.163Z,1.25
2022-09-07T10:34:26.151Z,1.08
2022-09-07T10:37:11.506Z,0.80
2022-09-07T10:40:16.376Z,0.90
2022-09-07T10:43:27.586Z,1.00
2022-09-07T10:46:12.946Z,0.80
2022-09-07T10:49:22.415Z,0.90
2022-09-07T10:52:07.529Z,1.00
2022-09-07T10:54:49.076Z,0.80
2022-09-07T10:57:51.615Z,0.80
2022-09-07T11:00:25.686Z,0.90
2022-09-07T11:03:27.935Z,0.80
2022-09-07T11:06:27.060Z,0.70
2022-09-07T11:09:21.288Z,0.70
2022-09-07T11:12:19.201Z,0.75
2022-09-07T11:15:14.838Z,0.80
2022-09-07T11:17:54.381Z,0.70
2022-09-07T11:20:46.895Z,0.70
2022-09-07T11:23:30.028Z,0.85
2022-09-07T11:26:14.387Z,0.80
2022-09-07T11:32:04.140Z,0.60
2022-09-07T11:34:46.066Z,0.70
2022-09-07T11:37:36.994Z,0.65
2022-09-07T11:40:21.502Z,0.60
2022-09-07T11:43:00.099Z,0.88
2022-09-07T11:45:51.801Z,0.77
2022-09-07T11:48:55.021Z,0.60
2022-09-07T11:51:39.745Z,0.68
2022-09-07T11:54:43.255Z,0.70
2022-09-07T11:57:15.932Z,0.60
2022-09-07T12:00:10.926Z,0.70
2022-09-07T12:02:59.525Z,0.77
2022-09-07T12:06:05.706Z,1.00
2022-09-07T12:08:41.121Z,0.80
2022-09-07T12:11:27.961Z,0.88
2022-09-07T12:14:06.558Z,0.90
2022-09-07T12:17:05.932Z,0.85
2022-09-07T12:19:38.711Z,0.77
2022-09-07T12:22:22.407Z,0.80
2022-09-07T12:25:09.195Z,0.80
2022-09-07T12:27:41.959Z,0.70
2022-09-07T12:30:14.786Z,0.63
2022-09-07T12:32:55.722Z,0.75
2022-09-07T12:35:42.668Z,0.80
2022-09-07T12:38:18.027Z,0.63
2022-09-07T12:41:04.921Z,0.70
2022-09-07T12:44:10.977Z,0.80
2022-09-07T12:47:25.635Z,0.60
2022-09-07T12:50:35.991Z,0.77
2022-09-07T12:53:29.942Z,1.10
2022-09-07T12:56:37.123Z,0.68
2022-09-07T12:59:31.326Z,1.00
2022-09-07T13:02:34.645Z,0.60
2022-09-07T13:05:15.384Z,0.90
2022-09-07T13:08:07.012Z,0.88
2022-09-07T13:10:44.429Z,0.88
2022-09-07T13:17:16.051Z,0.80
2022-09-07T13:19:46.594Z,0.90
2022-09-07T13:22:35.123Z,0.80
2022-09-07T13:25:20.607Z,0.70
2022-09-07T13:28:06.085Z,0.80
2022-09-07T13:31:00.850Z,0.70
2022-09-07T13:33:36.269Z,0.77
2022-09-07T13:36:21.797Z,0.80
2022-09-07T13:38:55.540Z,0.65
2022-09-07T13:41:52.251Z,0.80
2022-09-07T13:44:29.617Z,0.65
2022-09-07T13:47:17.742Z,0.63
2022-09-07T13:50:29.614Z,0.82
2022-09-07T13:53:12.151Z,0.80
2022-09-07T13:56:02.645Z,0.70
2022-09-07T13:58:40.993Z,0.90
2022-09-07T14:01:21.730Z,0.70
2022-09-07T14:04:00.022Z,0.70
2022-09-07T14:06:35.186Z,0.80
2022-09-07T14:09:16.822Z,0.60
2022-09-07T14:11:52.448Z,0.75
2022-09-07T14:14:26.538Z,0.70
2022-09-07T14:17:07.030Z,0.73
2022-09-07T14:19:46.066Z,0.75
2022-09-07T14:22:26.482Z,0.70
2022-09-07T14:25:05.116Z,0.80
2022-09-07T14:27:40.441Z,0.90
2022-09-07T14:30:28.705Z,0.70
2022-09-07T14:33:20.279Z,0.90
2022-09-07T14:35:53.107Z,0.80
2022-09-07T14:41:23.956Z,0.88
2022-09-07T14:43:59.018Z,0.88
2022-09-07T14:46:36.342Z,0.70
2022-09-07T14:49:20.718Z,0.80
2022-09-07T14:51:54.677Z,0.80
2022-09-07T14:54:52.825Z,0.70
2022-09-07T14:57:32.941Z,0.93
2022-09-07T15:00:30.249Z,0.77
2022-09-07T15:03:25.574Z,0.70
2022-09-07T15:06:02.927Z,0.93
2022-09-07T15:08:44.514Z,0.80
2022-09-07T15:11:35.918Z,1.10
2022-09-07T15:14:17.252Z,0.95
2022-09-07T15:19:53.990Z,0.73
2022-09-07T15:22:26.790Z,0.77
2022-09-07T15:24:59.538Z,0.90
2022-09-07T15:27:32.525Z,0.70
2022-09-07T15:30:05.651Z,0.80
2022-09-07T15:32:38.454Z,0.60
2022-09-07T15:35:11.185Z,0.90
2022-09-07T15:41:21.925Z,1.20
2022-09-07T15:43:49.761Z,0.70
2022-09-07T15:46:24.794Z,0.80
2022-09-07T15:48:58.360Z,1.73
2022-09-07T15:54:23.785Z,0.80
2022-09-07T15:59:49.106Z,0.90
2022-09-07T16:05:14.903Z,1.33
2022-09-07T16:10:41.417Z,1.95
2022-09-07T16:13:16.861Z,1.20
2022-09-07T16:15:50.064Z,0.90
2022-09-07T16:18:22.991Z,0.80
2022-09-07T16:20:56.550Z,1.00
2022-09-07T16:23:30.067Z,0.88
2022-09-07T16:26:04.896Z,0.90
2022-09-07T16:28:42.822Z,0.90
2022-09-07T16:31:21.745Z,1.00
2022-09-07T16:33:54.672Z,0.85
2022-09-07T16:36:27.503Z,1.05
2022-09-07T16:39:00.884Z,0.70
2022-09-07T16:41:34.583Z,0.98
2022-09-07T16:44:07.632Z,0.95
2022-09-07T16:46:40.499Z,0.73
2022-09-07T16:49:13.348Z,0.70
2022-09-07T16:51:45.992Z,0.80
2022-09-07T16:54:18.748Z,0.68
2022-09-07T16:56:52.554Z,0.90
2022-09-07T16:59:26.710Z,0.93
2022-09-07T17:01:59.538Z,0.80
2022-09-07T17:04:32.488Z,0.90
2022-09-07T17:07:05.229Z,1.15
2022-09-07T17:09:38.334Z,0.90
2022-09-07T17:12:12.403Z,1.08
2022-09-07T17:14:45.080Z,1.00
2022-09-07T17:17:19.945Z,1.30
2022-09-07T17:19:53.257Z,1.00
2022-09-07T17:22:26.393Z,1.20
2022-09-07T17:24:59.053Z,0.88
2022-09-07T17:27:32.074Z,1.00
2022-09-07T17:30:06.715Z,1.10
2022-09-07T17:32:39.816Z,0.98
2022-09-07T17:35:12.659Z,0.82
2022-09-07T17:37:45.309Z,0.98
2022-09-07T17:40:18.125Z,0.80
2022-09-07T17:45:43.863Z,0.88
2022-09-07T17:48:16.773Z,0.75
2022-09-07T17:51:01.260Z,0.88
2022-09-07T17:53:35.252Z,0.70
2022-09-07T17:56:10.583Z,0.80
2022-09-07T17:58:44.730Z,0.80
2022-09-07T18:01:19.667Z,0.77
2022-09-07T18:03:53.865Z,0.70
2022-09-07T18:06:26.717Z,0.82
2022-09-07T18:08:59.978Z,0.65
2022-09-07T18:11:49.876Z,0.80
2022-09-07T18:14:23.283Z,0.63
2022-09-07T18:16:56.431Z,0.85
2022-09-07T18:19:29.168Z,0.80
2022-09-07T18:22:03.762Z,0.75
2022-09-07T18:24:37.009Z,0.70
2022-09-07T18:27:10.075Z,0.80
2022-09-07T18:29:43.332Z,0.70
2022-09-07T18:32:16.067Z,0.80
2022-09-07T18:34:50.752Z,0.70
2022-09-07T18:37:23.970Z,0.80
2022-09-07T18:39:56.715Z,0.85
2022-09-07T18:42:30.247Z,0.82
2022-09-07T18:47:55.959Z,0.90
2022-09-07T18:50:28.651Z,0.80
2022-09-07T18:53:15.316Z,0.80
2022-09-07T18:55:50.729Z,0.90
2022-09-07T18:58:24.400Z,0.95
2022-09-07T19:00:58.216Z,1.10
2022-09-07T19:03:31.616Z,0.70
2022-09-07T19:06:15.792Z,0.70
2022-09-07T19:08:49.177Z,0.70
2022-09-07T19:11:24.755Z,1.10
2022-09-07T19:13:58.954Z,0.90
2022-09-07T19:16:32.619Z,0.82
2022-09-07T19:19:07.116Z,1.13
2022-09-07T19:21:41.779Z,0.73
2022-09-07T19:24:17.037Z,0.80
2022-09-07T19:26:50.181Z,0.80
2022-09-07T19:32:12.983Z,0.90
2022-09-07T19:34:45.873Z,0.63
2022-09-07T19:37:18.582Z,0.80
2022-09-07T19:39:54.876Z,0.77
2022-09-07T19:42:28.014Z,0.70
2022-09-07T19:45:00.843Z,0.90
2022-09-07T19:47:34.563Z,0.73
2022-09-07T19:50:07.636Z,0.70
2022-09-07T19:53:06.332Z,0.77
2022-09-07T19:55:45.053Z,0.80
2022-09-07T19:58:17.832Z,0.70
2022-09-07T20:00:50.628Z,1.02
2022-09-07T20:03:23.566Z,0.80
2022-09-07T20:05:56.375Z,0.73
2022-09-07T20:08:29.614Z,0.80
2022-09-07T20:11:14.084Z,0.70
2022-09-07T20:16:59.803Z,0.70
2022-09-07T20:19:32.620Z,0.90
2022-09-07T20:22:05.432Z,0.90
2022-09-07T20:24:38.752Z,0.80
2022-09-07T20:27:11.504Z,0.90
2022-09-07T20:29:44.410Z,0.80
2022-09-07T20:32:17.200Z,0.77
2022-09-07T20:34:50.464Z,0.70
2022-09-07T20:37:27.180Z,0.68
2022-09-07T20:39:59.901Z,0.70
2022-09-07T20:42:32.685Z,0.80
2022-09-07T20:45:06.006Z,0.88
2022-09-07T20:47:38.720Z,0.80
2022-09-07T20:50:11.464Z,0.88
2022-09-07T20:52:44.192Z,0.65
2022-09-07T20:55:16.901Z,0.77
2022-09-07T20:57:51.709Z,0.77
2022-09-07T21:00:25.711Z,0.93
2022-09-07T21:02:58.439Z,0.70
2022-09-07T21:05:34.657Z,0.77
2022-09-07T21:08:07.331Z,0.80
2022-09-07T21:10:41.638Z,0.82
2022-09-07T21:13:14.715Z,0.90
2022-09-07T21:15:47.570Z,0.80
2022-09-07T21:18:20.276Z,1.00
2022-09-07T21:21:19.633Z,1.10
2022-09-07T21:24:03.944Z,0.77
2022-09-07T21:26:36.596Z,0.70
2022-09-07T21:29:15.545Z,1.10
2022-09-07T21:31:48.446Z,0.95
2022-09-07T21:34:24.127Z,0.80
2022-09-07T21:37:21.948Z,1.20
2022-09-07T21:39:54.875Z,1.00
2022-09-07T21:42:27.605Z,0.90
2022-09-07T21:45:00.414Z,1.13
2022-09-07T21:47:33.909Z,1.00
2022-09-07T21:50:07.001Z,1.05
2022-09-07T21:52:39.907Z,0.80
2022-09-07T21:55:12.631Z,0.90
2022-09-07T21:57:45.320Z,0.90
2022-09-07T22:00:18.319Z,1.00
2022-09-07T22:02:51.593Z,1.02
2022-09-07T22:05:24.361Z,1.00
2022-09-07T22:07:57.036Z,0.80
2022-09-07T22:10:32.115Z,0.90
2022-09-07T22:13:04.879Z,1.00
2022-09-07T22:15:39.715Z,0.90
2022-09-07T22:18:12.750Z,1.17
2022-09-07T22:20:45.489Z,1.17
2022-09-07T22:23:18.167Z,0.88
2022-09-07T22:25:53.897Z,0.90
2022-09-07T22:28:29.281Z,1.30
2022-09-07T22:31:10.557Z,0.80
2022-09-07T22:33:44.747Z,1.10
2022-09-07T22:36:27.842Z,0.82
2022-09-07T22:39:06.587Z,0.90
2022-09-07T22:41:41.543Z,0.95
2022-09-07T22:44:16.807Z,1.00
2022-09-07T22:46:49.696Z,1.00
2022-09-07T22:49:22.513Z,1.00
2022-09-07T22:51:55.223Z,1.02
2022-09-07T22:54:27.988Z,1.20
2022-09-07T22:57:00.741Z,1.05
2022-09-07T22:59:33.530Z,0.80
2022-09-07T23:02:06.237Z,0.80
2022-09-07T23:04:39.085Z,0.95
2022-09-07T23:07:12.107Z,0.90
2022-09-07T23:09:44.843Z,1.00
2022-09-07T23:12:17.780Z,0.93
2022-09-07T23:14:50.456Z,0.73
2022-09-07T23:17:23.452Z,1.00
2022-09-07T23:19:56.456Z,1.00
2022-09-07T23:22:30.119Z,1.30
2022-09-07T23:25:04.273Z,0.90
2022-09-07T23:27:37.234Z,1.13
2022-09-07T23:30:10.693Z,1.10
2022-09-07T23:32:43.395Z,0.90
2022-09-07T23:35:16.791Z,0.85
2022-09-07T23:37:49.617Z,1.05
2022-09-07T23:40:22.427Z,1.00
2022-09-07T23:42:55.180Z,1.05
2022-09-07T23:45:53.073Z,1.13
2022-09-07T23:48:25.855Z,0.90
2022-09-07T23:50:58.579Z,1.20
2022-09-07T23:53:41.063Z,1.00
2022-09-07T23:56:13.738Z,1.20
2022-09-07T23:58:46.524Z,1.30
